Terminal Aerodrome Forecast
Issued by NWS Sterling, VA

Current Version | Previous Version | Text Only | Print | Product List | Glossary Off
Versions: 1 2 3 4 5 6 7 8 9 10 11 12 13 14 15 16

496
FTUS41 KLWX 251123
TAFMRB
TAF
KMRB 251123Z 2512/2612 19006KT P6SM BKN250
     FM251700 VRB04KT P6SM OVC040
     FM260200 VRB03KT P6SM OVC030
     FM260400 09004KT P6SM OVC015
     FM260600 09005KT P6SM OVC008
     FM260800 10005KT P6SM OVC003=

USA.gov is the U.S. government's official web portal to all federal, state and local government web resources and services.